sensor_id;sensor_type;location;lat;lon;timestamp;pressure;altitude;pressure_sealevel;temperature;humidity
64610;BME280;51019;46.090;6.350;2023-05-31T00:02:06;96417.91;;;14.13;100.00
64610;BME280;51019;46.090;6.350;2023-05-31T00:04:35;96397.53;;;13.82;100.00
64610;BME280;51019;46.090;6.350;2023-05-31T00:07:04;96421.88;;;14.01;100.00
64610;BME280;51019;46.090;6.350;2023-05-31T00:09:32;96411.97;;;14.19;100.00
64610;BME280;51019;46.090;6.350;2023-05-31T00:12:02;96414.97;;;14.08;100.00
64610;BME280;51019;46.090;6.350;2023-05-31T00:14:34;96407.34;;;14.13;100.00
64610;BME280;51019;46.090;6.350;2023-05-31T00:17:02;96416.94;;;13.90;100.00
64610;BME280;51019;46.090;6.350;2023-05-31T00:19:29;96420.09;;;13.85;100.00
64610;BME280;51019;46.090;6.350;2023-05-31T00:21:57;96416.13;;;13.81;100.00
64610;BME280;51019;46.090;6.350;2023-05-31T00:24:28;96422.22;;;13.49;100.00
64610;BME280;51019;46.090;6.350;2023-05-31T00:26:55;96422.38;;;13.56;100.00
64610;BME280;51019;46.090;6.350;2023-05-31T00:29:25;96421.88;;;13.52;100.00
64610;BME280;51019;46.090;6.350;2023-05-31T00:31:55;96421.88;;;13.52;100.00
64610;BME280;51019;46.090;6.350;2023-05-31T00:34:24;96422.38;;;13.72;100.00
64610;BME280;51019;46.090;6.350;2023-05-31T00:36:52;96420.22;;;13.67;100.00
64610;BME280;51019;46.090;6.350;2023-05-31T00:39:22;96433.22;;;13.77;100.00
64610;BME280;51019;46.090;6.350;2023-05-31T00:41:50;96437.53;;;13.62;100.00
64610;BME280;51019;46.090;6.350;2023-05-31T00:44:18;96422.22;;;13.65;100.00
64610;BME280;51019;46.090;6.350;2023-05-31T00:46:46;96430.41;;;13.46;100.00
64610;BME280;51019;46.090;6.350;2023-05-31T00:49:17;96432.41;;;13.60;100.00
64610;BME280;51019;46.090;6.350;2023-05-31T00:51:45;96428.44;;;13.40;100.00
64610;BME280;51019;46.090;6.350;2023-05-31T00:54:13;96435.38;;;13.41;100.00
64610;BME280;51019;46.090;6.350;2023-05-31T00:56:40;96431.31;;;13.13;100.00
64610;BME280;51019;46.090;6.350;2023-05-31T00:59:09;96434.25;;;13.09;100.00
64610;BME280;51019;46.090;6.350;2023-05-31T01:01:37;96437.78;;;13.26;100.00
64610;BME280;51019;46.090;6.350;2023-05-31T01:04:05;96429.91;;;13.34;100.00
64610;BME280;51019;46.090;6.350;2023-05-31T01:06:37;96432.94;;;13.05;100.00
64610;BME280;51019;46.090;6.350;2023-05-31T01:09:05;96436.34;;;13.40;100.00
64610;BME280;51019;46.090;6.350;2023-05-31T01:11:46;96432.09;;;12.97;100.00
64610;BME280;51019;46.090;6.350;2023-05-31T01:14:24;96437.13;;;12.74;100.00
64610;BME280;51019;46.090;6.350;2023-05-31T01:17:01;96444.19;;;12.73;100.00
64610;BME280;51019;46.090;6.350;2023-05-31T01:19:45;96442.69;;;12.71;100.00
64610;BME280;51019;46.090;6.350;2023-05-31T01:22:33;96439.38;;;12.69;100.00
64610;BME280;51019;46.090;6.350;2023-05-31T01:25:15;96439.06;;;12.72;100.00
64610;BME280;51019;46.090;6.350;2023-05-31T01:27:52;96432.41;;;12.52;100.00
64610;BME280;51019;46.090;6.350;2023-05-31T01:30:21;96447.34;;;12.51;100.00
64610;BME280;51019;46.090;6.350;2023-05-31T01:32:52;96456.00;;;12.44;100.00
64610;BME280;51019;46.090;6.350;2023-05-31T01:35:20;96454.72;;;12.48;100.00
64610;BME280;51019;46.090;6.350;2023-05-31T01:37:49;96442.16;;;12.33;100.00
64610;BME280;51019;46.090;6.350;2023-05-31T01:40:19;96449.69;;;12.28;100.00
64610;BME280;51019;46.090;6.350;2023-05-31T01:42:50;96434.22;;;12.25;100.00
64610;BME280;51019;46.090;6.350;2023-05-31T01:45:19;96463.28;;;12.50;100.00
64610;BME280;51019;46.090;6.350;2023-05-31T01:47:49;96453.38;;;12.44;100.00
64610;BME280;51019;46.090;6.350;2023-05-31T01:50:19;96458.78;;;12.42;100.00
64610;BME280;51019;46.090;6.350;2023-05-31T01:52:47;96443.91;;;12.51;100.00
64610;BME280;51019;46.090;6.350;2023-05-31T01:55:16;96454.47;;;12.67;100.00
64610;BME280;51019;46.090;6.350;2023-05-31T01:57:45;96461.53;;;12.66;100.00
64610;BME280;51019;46.090;6.350;2023-05-31T02:00:18;96458.16;;;12.74;100.00
64610;BME280;51019;46.090;6.350;2023-05-31T02:02:47;96438.84;;;12.57;100.00
64610;BME280;51019;46.090;6.350;2023-05-31T02:05:15;96461.50;;;12.58;100.00
64610;BME280;51019;46.090;6.350;2023-05-31T02:07:44;96459.78;;;12.41;100.00
64610;BME280;51019;46.090;6.350;2023-05-31T02:10:13;96463.63;;;12.55;100.00
64610;BME280;51019;46.090;6.350;2023-05-31T02:12:41;96453.41;;;12.18;100.00
64610;BME280;51019;46.090;6.350;2023-05-31T02:15:09;96441.78;;;12.03;100.00
64610;BME280;51019;46.090;6.350;2023-05-31T02:17:41;96444.31;;;12.12;100.00
64610;BME280;51019;46.090;6.350;2023-05-31T02:20:11;96459.72;;;12.33;100.00
64610;BME280;51019;46.090;6.350;2023-05-31T02:22:42;96448.59;;;12.13;100.00
64610;BME280;51019;46.090;6.350;2023-05-31T02:25:12;96445.09;;;12.05;100.00
64610;BME280;51019;46.090;6.350;2023-05-31T02:27:41;96449.47;;;11.96;100.00
64610;BME280;51019;46.090;6.350;2023-05-31T02:30:10;96462.03;;;12.10;100.00
64610;BME280;51019;46.090;6.350;2023-05-31T02:32:40;96437.47;;;11.93;100.00
64610;BME280;51019;46.090;6.350;2023-05-31T02:35:09;96462.66;;;12.04;100.00
64610;BME280;51019;46.090;6.350;2023-05-31T02:37:38;96461.28;;;12.18;100.00
64610;BME280;51019;46.090;6.350;2023-05-31T02:40:07;96459.47;;;12.18;100.00
64610;BME280;51019;46.090;6.350;2023-05-31T02:42:40;96453.81;;;11.87;100.00
64610;BME280;51019;46.090;6.350;2023-05-31T02:45:09;96459.22;;;12.04;100.00
64610;BME280;51019;46.090;6.350;2023-05-31T02:47:40;96457.41;;;12.04;100.00
64610;BME280;51019;46.090;6.350;2023-05-31T02:50:09;96456.84;;;12.18;100.00
64610;BME280;51019;46.090;6.350;2023-05-31T02:52:38;96431.59;;;11.64;100.00
64610;BME280;51019;46.090;6.350;2023-05-31T02:55:08;96465.38;;;11.59;100.00
64610;BME280;51019;46.090;6.350;2023-05-31T02:57:36;96464.00;;;11.55;100.00
64610;BME280;51019;46.090;6.350;2023-05-31T03:00:05;96462.91;;;11.57;100.00
64610;BME280;51019;46.090;6.350;2023-05-31T03:02:40;96464.31;;;11.70;100.00
64610;BME280;51019;46.090;6.350;2023-05-31T03:05:09;96458.22;;;11.51;100.00
64610;BME280;51019;46.090;6.350;2023-05-31T03:07:36;96469.78;;;11.58;100.00
64610;BME280;51019;46.090;6.350;2023-05-31T03:10:06;96466.63;;;11.55;100.00
64610;BME280;51019;46.090;6.350;2023-05-31T03:12:34;96477.28;;;11.53;100.00
64610;BME280;51019;46.090;6.350;2023-05-31T03:15:03;96473.97;;;11.51;100.00
64610;BME280;51019;46.090;6.350;2023-05-31T03:17:30;96474.97;;;11.50;100.00
64610;BME280;51019;46.090;6.350;2023-05-31T03:20:00;96470.91;;;11.56;100.00
64610;BME280;51019;46.090;6.350;2023-05-31T03:22:29;96477.81;;;11.57;100.00
64610;BME280;51019;46.090;6.350;2023-05-31T03:24:58;96479.63;;;11.56;100.00
64610;BME280;51019;46.090;6.350;2023-05-31T03:27:27;96471.34;;;11.16;100.00
64610;BME280;51019;46.090;6.350;2023-05-31T03:29:55;96478.03;;;11.01;100.00
64610;BME280;51019;46.090;6.350;2023-05-31T03:32:25;96465.00;;;10.91;100.00
64610;BME280;51019;46.090;6.350;2023-05-31T03:34:53;96467.31;;;10.94;100.00
64610;BME280;51019;46.090;6.350;2023-05-31T03:37:23;96485.84;;;11.10;100.00
64610;BME280;51019;46.090;6.350;2023-05-31T03:39:51;96490.22;;;11.19;100.00
64610;BME280;51019;46.090;6.350;2023-05-31T03:42:20;96472.66;;;11.02;100.00
64610;BME280;51019;46.090;6.350;2023-05-31T03:44:49;96471.81;;;11.02;100.00
64610;BME280;51019;46.090;6.350;2023-05-31T03:47:16;96491.59;;;11.23;100.00
64610;BME280;51019;46.090;6.350;2023-05-31T03:49:45;96475.28;;;11.02;100.00
64610;BME280;51019;46.090;6.350;2023-05-31T03:52:12;96478.25;;;10.89;100.00
64610;BME280;51019;46.090;6.350;2023-05-31T03:54:42;96494.47;;;11.03;100.00
64610;BME280;51019;46.090;6.350;2023-05-31T03:57:13;96491.63;;;11.14;100.00
64610;BME280;51019;46.090;6.350;2023-05-31T03:59:41;96489.31;;;11.11;100.00
64610;BME280;51019;46.090;6.350;2023-05-31T04:02:09;96473.53;;;10.93;100.00
64610;BME280;51019;46.090;6.350;2023-05-31T04:04:36;96477.66;;;10.96;100.00
64610;BME280;51019;46.090;6.350;2023-05-31T04:07:04;96497.66;;;11.24;100.00
64610;BME280;51019;46.090;6.350;2023-05-31T04:09:32;96501.78;;;11.26;100.00
64610;BME280;51019;46.090;6.350;2023-05-31T04:12:01;96502.84;;;11.34;100.00
64610;BME280;51019;46.090;6.350;2023-05-31T04:14:28;96501.25;;;11.23;100.00
64610;BME280;51019;46.090;6.350;2023-05-31T04:16:56;96506.16;;;11.36;100.00
64610;BME280;51019;46.090;6.350;2023-05-31T04:19:25;96506.44;;;11.33;100.00
64610;BME280;51019;46.090;6.350;2023-05-31T04:21:54;96506.69;;;11.39;100.00
64610;BME280;51019;46.090;6.350;2023-05-31T04:24:21;96503.22;;;11.39;100.00
64610;BME280;51019;46.090;6.350;2023-05-31T04:26:49;96506.91;;;11.28;100.00
64610;BME280;51019;46.090;6.350;2023-05-31T04:29:18;96506.47;;;10.96;100.00
64610;BME280;51019;46.090;6.350;2023-05-31T04:31:47;96507.28;;;11.06;100.00
64610;BME280;51019;46.090;6.350;2023-05-31T04:34:15;96514.03;;;11.08;100.00
64610;BME280;51019;46.090;6.350;2023-05-31T04:36:44;96452.63;;;10.83;100.00
64610;BME280;51019;46.090;6.350;2023-05-31T04:39:14;96510.38;;;11.19;100.00
64610;BME280;51019;46.090;6.350;2023-05-31T04:41:42;96523.06;;;11.41;100.00
64610;BME280;51019;46.090;6.350;2023-05-31T04:44:11;96526.72;;;11.58;100.00
64610;BME280;51019;46.090;6.350;2023-05-31T04:46:40;96525.34;;;11.36;100.00
64610;BME280;51019;46.090;6.350;2023-05-31T04:49:08;96528.59;;;11.20;100.00
64610;BME280;51019;46.090;6.350;2023-05-31T04:51:37;96532.41;;;11.53;100.00
64610;BME280;51019;46.090;6.350;2023-05-31T04:54:04;96532.56;;;11.70;100.00
64610;BME280;51019;46.090;6.350;2023-05-31T04:56:32;96530.66;;;11.89;100.00
64610;BME280;51019;46.090;6.350;2023-05-31T04:59:01;96537.13;;;11.95;100.00
64610;BME280;51019;46.090;6.350;2023-05-31T05:01:28;96527.78;;;12.18;100.00
64610;BME280;51019;46.090;6.350;2023-05-31T05:03:57;96541.75;;;12.45;100.00
64610;BME280;51019;46.090;6.350;2023-05-31T05:06:25;96516.78;;;12.41;100.00
64610;BME280;51019;46.090;6.350;2023-05-31T05:08:53;96542.69;;;12.35;100.00
64610;BME280;51019;46.090;6.350;2023-05-31T05:11:22;96531.97;;;12.29;100.00
64610;BME280;51019;46.090;6.350;2023-05-31T05:13:50;96542.09;;;12.24;100.00
64610;BME280;51019;46.090;6.350;2023-05-31T05:16:18;96547.00;;;12.19;100.00
64610;BME280;51019;46.090;6.350;2023-05-31T05:18:45;96546.41;;;12.51;100.00
64610;BME280;51019;46.090;6.350;2023-05-31T05:21:14;96552.25;;;12.19;100.00
64610;BME280;51019;46.090;6.350;2023-05-31T05:23:41;96539.88;;;12.11;100.00
64610;BME280;51019;46.090;6.350;2023-05-31T05:26:08;96549.69;;;12.09;100.00
64610;BME280;51019;46.090;6.350;2023-05-31T05:28:36;96551.25;;;12.20;100.00
64610;BME280;51019;46.090;6.350;2023-05-31T05:31:03;96551.00;;;12.05;100.00
64610;BME280;51019;46.090;6.350;2023-05-31T05:33:31;96543.91;;;12.23;100.00
64610;BME280;51019;46.090;6.350;2023-05-31T05:35:58;96550.22;;;12.13;100.00
64610;BME280;51019;46.090;6.350;2023-05-31T05:38:28;96548.50;;;12.04;100.00
64610;BME280;51019;46.090;6.350;2023-05-31T05:40:55;96555.41;;;12.22;100.00
64610;BME280;51019;46.090;6.350;2023-05-31T05:43:23;96554.41;;;12.23;100.00
64610;BME280;51019;46.090;6.350;2023-05-31T05:45:50;96559.19;;;12.46;100.00
64610;BME280;51019;46.090;6.350;2023-05-31T05:48:17;96533.69;;;12.38;100.00
64610;BME280;51019;46.090;6.350;2023-05-31T05:50:45;96558.88;;;12.49;100.00
64610;BME280;51019;46.090;6.350;2023-05-31T05:53:12;96562.09;;;12.60;100.00
64610;BME280;51019;46.090;6.350;2023-05-31T05:55:47;96557.28;;;12.56;100.00
64610;BME280;51019;46.090;6.350;2023-05-31T05:58:15;96560.22;;;12.79;100.00
64610;BME280;51019;46.090;6.350;2023-05-31T06:00:42;96559.78;;;12.83;100.00
64610;BME280;51019;46.090;6.350;2023-05-31T06:03:09;96565.66;;;13.11;100.00
64610;BME280;51019;46.090;6.350;2023-05-31T06:05:37;96558.22;;;13.32;100.00
64610;BME280;51019;46.090;6.350;2023-05-31T06:08:05;96558.34;;;13.73;100.00
64610;BME280;51019;46.090;6.350;2023-05-31T06:10:32;96553.31;;;14.28;100.00
64610;BME280;51019;46.090;6.350;2023-05-31T06:13:01;96561.72;;;14.72;100.00
64610;BME280;51019;46.090;6.350;2023-05-31T06:15:30;96556.09;;;14.75;100.00
64610;BME280;51019;46.090;6.350;2023-05-31T06:17:57;96563.91;;;15.16;100.00
64610;BME280;51019;46.090;6.350;2023-05-31T06:20:25;96555.59;;;15.35;100.00
64610;BME280;51019;46.090;6.350;2023-05-31T06:22:52;96562.84;;;15.41;100.00
64610;BME280;51019;46.090;6.350;2023-05-31T06:25:20;96534.81;;;15.94;100.00
64610;BME280;51019;46.090;6.350;2023-05-31T06:27:47;96546.41;;;15.93;100.00
64610;BME280;51019;46.090;6.350;2023-05-31T06:30:16;96549.41;;;16.13;100.00
64610;BME280;51019;46.090;6.350;2023-05-31T06:32:44;96553.66;;;16.37;100.00
64610;BME280;51019;46.090;6.350;2023-05-31T06:35:11;96560.25;;;16.41;100.00
64610;BME280;51019;46.090;6.350;2023-05-31T06:37:38;96558.63;;;16.62;100.00
64610;BME280;51019;46.090;6.350;2023-05-31T06:40:07;96551.88;;;16.75;100.00
64610;BME280;51019;46.090;6.350;2023-05-31T06:42:34;96542.88;;;16.61;100.00
64610;BME280;51019;46.090;6.350;2023-05-31T06:45:02;96551.09;;;16.89;100.00
64610;BME280;51019;46.090;6.350;2023-05-31T06:47:32;96551.91;;;17.19;100.00
64610;BME280;51019;46.090;6.350;2023-05-31T06:49:59;96556.66;;;17.09;100.00
64610;BME280;51019;46.090;6.350;2023-05-31T06:52:27;96548.53;;;17.10;100.00
64610;BME280;51019;46.090;6.350;2023-05-31T06:54:55;96535.75;;;17.28;100.00
64610;BME280;51019;46.090;6.350;2023-05-31T06:57:22;96543.50;;;17.45;100.00
64610;BME280;51019;46.090;6.350;2023-05-31T06:59:50;96550.00;;;17.71;100.00
64610;BME280;51019;46.090;6.350;2023-05-31T07:02:17;96547.88;;;17.67;100.00
64610;BME280;51019;46.090;6.350;2023-05-31T07:04:48;96552.56;;;17.86;100.00
64610;BME280;51019;46.090;6.350;2023-05-31T07:07:15;96556.38;;;18.41;93.73
64610;BME280;51019;46.090;6.350;2023-05-31T07:09:42;96547.00;;;18.38;90.71
64610;BME280;51019;46.090;6.350;2023-05-31T07:12:10;96538.22;;;18.59;93.12
64610;BME280;51019;46.090;6.350;2023-05-31T07:14:38;96552.22;;;18.53;89.86
64610;BME280;51019;46.090;6.350;2023-05-31T07:17:06;96553.41;;;19.00;88.88
64610;BME280;51019;46.090;6.350;2023-05-31T07:19:42;96543.72;;;19.20;85.27
64610;BME280;51019;46.090;6.350;2023-05-31T07:22:14;96556.94;;;19.07;84.32
64610;BME280;51019;46.090;6.350;2023-05-31T07:24:42;96556.50;;;19.03;82.26
64610;BME280;51019;46.090;6.350;2023-05-31T07:27:09;96555.03;;;19.63;82.05
64610;BME280;51019;46.090;6.350;2023-05-31T07:29:37;96566.06;;;19.60;81.06
64610;BME280;51019;46.090;6.350;2023-05-31T07:32:05;96550.38;;;19.78;82.59
64610;BME280;51019;46.090;6.350;2023-05-31T07:34:32;96545.75;;;20.13;80.52
64610;BME280;51019;46.090;6.350;2023-05-31T07:37:00;96547.41;;;20.08;76.15
64610;BME280;51019;46.090;6.350;2023-05-31T07:39:29;96546.38;;;20.15;75.37
64610;BME280;51019;46.090;6.350;2023-05-31T07:41:56;96550.25;;;20.06;72.97
64610;BME280;51019;46.090;6.350;2023-05-31T07:44:24;96541.84;;;20.09;71.21
64610;BME280;51019;46.090;6.350;2023-05-31T07:46:52;96541.72;;;20.30;68.86
64610;BME280;51019;46.090;6.350;2023-05-31T07:49:19;96537.16;;;20.11;70.06
64610;BME280;51019;46.090;6.350;2023-05-31T07:51:47;96533.28;;;20.07;71.69
64610;BME280;51019;46.090;6.350;2023-05-31T07:54:14;96544.06;;;19.92;72.14
64610;BME280;51019;46.090;6.350;2023-05-31T07:56:43;96534.09;;;20.08;71.81
64610;BME280;51019;46.090;6.350;2023-05-31T07:59:10;96531.31;;;20.42;71.26
64610;BME280;51019;46.090;6.350;2023-05-31T08:01:38;96529.88;;;20.59;69.58
64610;BME280;51019;46.090;6.350;2023-05-31T08:04:07;96520.59;;;20.16;70.67
64610;BME280;51019;46.090;6.350;2023-05-31T08:06:34;96529.03;;;20.98;69.96
64610;BME280;51019;46.090;6.350;2023-05-31T08:09:03;96536.78;;;21.00;68.25
64610;BME280;51019;46.090;6.350;2023-05-31T08:11:32;96540.47;;;21.25;67.10
64610;BME280;51019;46.090;6.350;2023-05-31T08:14:02;96535.13;;;21.12;65.48
64610;BME280;51019;46.090;6.350;2023-05-31T08:16:31;96527.56;;;20.89;66.06
64610;BME280;51019;46.090;6.350;2023-05-31T08:18:59;96527.13;;;21.32;65.17
64610;BME280;51019;46.090;6.350;2023-05-31T08:21:26;96517.25;;;21.39;62.82
64610;BME280;51019;46.090;6.350;2023-05-31T08:23:53;96516.63;;;21.44;64.03
64610;BME280;51019;46.090;6.350;2023-05-31T08:26:21;96515.53;;;21.64;61.98
64610;BME280;51019;46.090;6.350;2023-05-31T08:28:49;96508.13;;;21.66;62.51
64610;BME280;51019;46.090;6.350;2023-05-31T08:31:18;96516.19;;;21.53;61.47
64610;BME280;51019;46.090;6.350;2023-05-31T08:33:55;96503.75;;;21.79;62.54
64610;BME280;51019;46.090;6.350;2023-05-31T08:36:24;96504.41;;;21.67;61.17
64610;BME280;51019;46.090;6.350;2023-05-31T08:38:52;96503.16;;;21.25;61.98
64610;BME280;51019;46.090;6.350;2023-05-31T08:41:21;96494.91;;;21.85;63.03
64610;BME280;51019;46.090;6.350;2023-05-31T08:43:49;96489.78;;;21.83;60.69
64610;BME280;51019;46.090;6.350;2023-05-31T08:46:19;96495.31;;;22.20;61.46
64610;BME280;51019;46.090;6.350;2023-05-31T08:48:52;96497.97;;;21.88;63.42
64610;BME280;51019;46.090;6.350;2023-05-31T08:51:23;96502.94;;;21.27;62.68
64610;BME280;51019;46.090;6.350;2023-05-31T08:53:51;96496.78;;;21.13;62.95
64610;BME280;51019;46.090;6.350;2023-05-31T08:56:19;96491.34;;;21.91;63.63
64610;BME280;51019;46.090;6.350;2023-05-31T08:58:49;96491.53;;;21.58;61.48
64610;BME280;51019;46.090;6.350;2023-05-31T09:01:20;96483.22;;;21.41;62.62
64610;BME280;51019;46.090;6.350;2023-05-31T09:03:47;96500.63;;;21.88;63.86
64610;BME280;51019;46.090;6.350;2023-05-31T09:06:14;96492.41;;;22.53;59.87
64610;BME280;51019;46.090;6.350;2023-05-31T09:08:43;96477.69;;;21.43;60.77
64610;BME280;51019;46.090;6.350;2023-05-31T09:11:10;96487.16;;;21.77;61.71
64610;BME280;51019;46.090;6.350;2023-05-31T09:13:38;96490.81;;;21.82;62.34
64610;BME280;51019;46.090;6.350;2023-05-31T09:16:05;96479.06;;;21.90;61.80
64610;BME280;51019;46.090;6.350;2023-05-31T09:18:38;96489.97;;;21.88;61.66
64610;BME280;51019;46.090;6.350;2023-05-31T09:21:10;96489.03;;;21.69;61.05
64610;BME280;51019;46.090;6.350;2023-05-31T09:23:51;96484.44;;;21.83;61.91
64610;BME280;51019;46.090;6.350;2023-05-31T09:26:19;96485.47;;;21.82;60.15
64610;BME280;51019;46.090;6.350;2023-05-31T09:28:48;96489.88;;;21.63;61.36
64610;BME280;51019;46.090;6.350;2023-05-31T09:31:15;96485.97;;;22.04;59.87
64610;BME280;51019;46.090;6.350;2023-05-31T09:33:46;96486.81;;;21.66;60.15
64610;BME280;51019;46.090;6.350;2023-05-31T09:36:27;96487.88;;;21.90;59.36
64610;BME280;51019;46.090;6.350;2023-05-31T09:39:04;96489.31;;;21.93;60.15
64610;BME280;51019;46.090;6.350;2023-05-31T09:41:33;96486.59;;;22.06;59.53
64610;BME280;51019;46.090;6.350;2023-05-31T09:44:03;96495.47;;;22.00;59.46
64610;BME280;51019;46.090;6.350;2023-05-31T09:46:33;96496.31;;;22.25;57.16
64610;BME280;51019;46.090;6.350;2023-05-31T09:49:03;96494.09;;;23.15;56.33
64610;BME280;51019;46.090;6.350;2023-05-31T09:51:33;96487.56;;;23.96;53.55
64610;BME280;51019;46.090;6.350;2023-05-31T09:54:02;96467.22;;;23.46;53.88
64610;BME280;51019;46.090;6.350;2023-05-31T09:56:36;96472.28;;;23.84;50.56
64610;BME280;51019;46.090;6.350;2023-05-31T09:59:04;96476.69;;;22.38;53.57
64610;BME280;51019;46.090;6.350;2023-05-31T10:01:32;96466.88;;;23.25;54.17
64610;BME280;51019;46.090;6.350;2023-05-31T10:04:03;96466.16;;;24.26;49.84
64610;BME280;51019;46.090;6.350;2023-05-31T10:06:32;96464.06;;;24.39;50.46
64610;BME280;51019;46.090;6.350;2023-05-31T10:09:01;96471.47;;;25.02;51.00
64610;BME280;51019;46.090;6.350;2023-05-31T10:11:33;96474.38;;;25.12;50.47
64610;BME280;51019;46.090;6.350;2023-05-31T10:14:03;96467.38;;;24.88;49.73
64610;BME280;51019;46.090;6.350;2023-05-31T10:16:35;96472.41;;;25.71;49.91
64610;BME280;51019;46.090;6.350;2023-05-31T10:19:06;96471.06;;;26.30;46.88
64610;BME280;51019;46.090;6.350;2023-05-31T10:21:41;96465.00;;;25.78;48.09
64610;BME280;51019;46.090;6.350;2023-05-31T10:24:15;96468.88;;;24.72;48.46
64610;BME280;51019;46.090;6.350;2023-05-31T10:26:51;96432.41;;;23.95;50.49
64610;BME280;51019;46.090;6.350;2023-05-31T10:29:27;96460.38;;;23.69;50.67
64610;BME280;51019;46.090;6.350;2023-05-31T10:32:04;96448.13;;;24.44;48.02
64610;BME280;51019;46.090;6.350;2023-05-31T10:34:35;96441.59;;;24.40;48.35
64610;BME280;51019;46.090;6.350;2023-05-31T10:37:04;96437.66;;;24.54;50.40
64610;BME280;51019;46.090;6.350;2023-05-31T10:39:34;96434.44;;;23.69;49.83
64610;BME280;51019;46.090;6.350;2023-05-31T10:42:12;96440.50;;;23.76;50.23
64610;BME280;51019;46.090;6.350;2023-05-31T10:44:47;96437.56;;;23.66;50.90
64610;BME280;51019;46.090;6.350;2023-05-31T10:47:23;96435.00;;;23.71;51.54
64610;BME280;51019;46.090;6.350;2023-05-31T10:49:55;96441.88;;;23.67;52.33
64610;BME280;51019;46.090;6.350;2023-05-31T10:52:29;96444.78;;;23.47;51.01
64610;BME280;51019;46.090;6.350;2023-05-31T10:55:15;96434.38;;;23.58;50.03
64610;BME280;51019;46.090;6.350;2023-05-31T10:57:43;96433.47;;;23.45;51.16
64610;BME280;51019;46.090;6.350;2023-05-31T11:00:12;96430.88;;;23.87;50.50
64610;BME280;51019;46.090;6.350;2023-05-31T11:02:47;96444.63;;;24.44;50.28
64610;BME280;51019;46.090;6.350;2023-05-31T11:05:20;96429.78;;;25.35;47.80
64610;BME280;51019;46.090;6.350;2023-05-31T11:07:49;96437.03;;;25.22;45.98
64610;BME280;51019;46.090;6.350;2023-05-31T11:10:24;96434.66;;;26.06;46.75
64610;BME280;51019;46.090;6.350;2023-05-31T11:12:56;96441.19;;;26.94;44.33
64610;BME280;51019;46.090;6.350;2023-05-31T11:15:38;96435.22;;;27.52;42.93
64610;BME280;51019;46.090;6.350;2023-05-31T11:18:08;96418.66;;;26.61;42.16
64610;BME280;51019;46.090;6.350;2023-05-31T11:20:38;96438.00;;;26.30;43.17
64610;BME280;51019;46.090;6.350;2023-05-31T11:23:26;96436.34;;;27.34;42.65
64610;BME280;51019;46.090;6.350;2023-05-31T11:26:20;96439.34;;;28.08;40.88
64610;BME280;51019;46.090;6.350;2023-05-31T11:28:55;96437.91;;;26.25;43.29
64610;BME280;51019;46.090;6.350;2023-05-31T11:31:57;96432.53;;;24.53;46.50
64610;BME280;51019;46.090;6.350;2023-05-31T11:34:31;96425.44;;;24.70;46.45
64610;BME280;51019;46.090;6.350;2023-05-31T11:37:03;96426.09;;;25.12;47.68
64610;BME280;51019;46.090;6.350;2023-05-31T11:39:32;96432.50;;;25.23;45.85
64610;BME280;51019;46.090;6.350;2023-05-31T11:42:02;96439.66;;;24.94;45.26
64610;BME280;51019;46.090;6.350;2023-05-31T11:44:31;96429.00;;;25.22;45.50
64610;BME280;51019;46.090;6.350;2023-05-31T11:47:01;96440.66;;;25.68;45.79
64610;BME280;51019;46.090;6.350;2023-05-31T11:49:31;96449.59;;;25.74;45.00
64610;BME280;51019;46.090;6.350;2023-05-31T11:52:02;96435.16;;;25.35;45.29
64610;BME280;51019;46.090;6.350;2023-05-31T11:54:31;96447.91;;;24.34;47.82
64610;BME280;51019;46.090;6.350;2023-05-31T11:57:02;96444.63;;;23.91;48.51
64610;BME280;51019;46.090;6.350;2023-05-31T11:59:31;96445.38;;;24.09;49.74
64610;BME280;51019;46.090;6.350;2023-05-31T12:02:01;96446.38;;;23.48;51.24
64610;BME280;51019;46.090;6.350;2023-05-31T12:04:31;96451.31;;;23.33;51.13
64610;BME280;51019;46.090;6.350;2023-05-31T12:07:01;96464.53;;;23.65;51.89
64610;BME280;51019;46.090;6.350;2023-05-31T12:09:29;96459.81;;;23.12;57.50
64610;BME280;51019;46.090;6.350;2023-05-31T12:11:57;96452.13;;;22.79;60.09
64610;BME280;51019;46.090;6.350;2023-05-31T12:14:25;96457.03;;;22.32;61.28
64610;BME280;51019;46.090;6.350;2023-05-31T12:16:53;96458.94;;;22.25;62.02
64610;BME280;51019;46.090;6.350;2023-05-31T12:19:21;96452.50;;;22.08;63.83
64610;BME280;51019;46.090;6.350;2023-05-31T12:21:51;96450.78;;;21.82;63.51
64610;BME280;51019;46.090;6.350;2023-05-31T12:24:21;96450.69;;;21.19;63.79
64610;BME280;51019;46.090;6.350;2023-05-31T12:26:49;96446.16;;;21.13;64.57
64610;BME280;51019;46.090;6.350;2023-05-31T12:29:18;96457.50;;;20.89;63.99
64610;BME280;51019;46.090;6.350;2023-05-31T12:31:46;96465.53;;;21.47;62.26
64610;BME280;51019;46.090;6.350;2023-05-31T12:34:17;96465.47;;;21.60;62.45
64610;BME280;51019;46.090;6.350;2023-05-31T12:36:46;96464.19;;;21.18;64.34
64610;BME280;51019;46.090;6.350;2023-05-31T12:39:17;96473.25;;;21.03;65.20
64610;BME280;51019;46.090;6.350;2023-05-31T12:41:48;96461.88;;;20.37;66.72
64610;BME280;51019;46.090;6.350;2023-05-31T12:44:17;96472.88;;;20.21;67.24
64610;BME280;51019;46.090;6.350;2023-05-31T12:46:47;96462.63;;;19.98;67.83
64610;BME280;51019;46.090;6.350;2023-05-31T12:49:19;96481.47;;;20.03;68.67
64610;BME280;51019;46.090;6.350;2023-05-31T12:51:47;96478.75;;;19.77;67.52
64610;BME280;51019;46.090;6.350;2023-05-31T12:54:16;96467.31;;;19.76;68.21
64610;BME280;51019;46.090;6.350;2023-05-31T12:56:47;96484.06;;;19.22;69.58
64610;BME280;51019;46.090;6.350;2023-05-31T12:59:14;96500.75;;;18.75;72.99
64610;BME280;51019;46.090;6.350;2023-05-31T13:01:41;96509.34;;;18.77;74.17
64610;BME280;51019;46.090;6.350;2023-05-31T13:04:09;96500.88;;;18.61;74.50
64610;BME280;51019;46.090;6.350;2023-05-31T13:06:37;96515.84;;;18.47;74.47
64610;BME280;51019;46.090;6.350;2023-05-31T13:09:06;96514.84;;;18.27;78.14